sensor_id;sensor_type;location;lat;lon;timestamp;P1;durP1;ratioP1;P2;durP2;ratioP2
58017;SDS011;43810;50.860;19.226;2022-09-09T00:00:53;16.20;;;8.38;;
58017;SDS011;43810;50.860;19.226;2022-09-09T00:03:32;13.40;;;7.72;;
58017;SDS011;43810;50.860;19.226;2022-09-09T00:09:07;20.00;;;8.60;;
58017;SDS011;43810;50.860;19.226;2022-09-09T00:11:42;16.90;;;9.30;;
58017;SDS011;43810;50.860;19.226;2022-09-09T00:16:58;18.05;;;8.93;;
58017;SDS011;43810;50.860;19.226;2022-09-09T00:24:32;15.82;;;8.00;;
58017;SDS011;43810;50.860;19.226;2022-09-09T00:27:02;16.52;;;7.60;;
58017;SDS011;43810;50.860;19.226;2022-09-09T00:29:41;18.40;;;8.10;;
58017;SDS011;43810;50.860;19.226;2022-09-09T00:32:15;15.43;;;7.57;;
58017;SDS011;43810;50.860;19.226;2022-09-09T00:34:54;13.82;;;7.10;;
58017;SDS011;43810;50.860;19.226;2022-09-09T00:37:20;11.50;;;6.63;;
58017;SDS011;43810;50.860;19.226;2022-09-09T00:39:47;12.82;;;6.65;;
58017;SDS011;43810;50.860;19.226;2022-09-09T00:42:18;13.85;;;6.88;;
58017;SDS011;43810;50.860;19.226;2022-09-09T00:44:52;11.02;;;6.32;;
58017;SDS011;43810;50.860;19.226;2022-09-09T00:47:26;12.30;;;5.32;;
58017;SDS011;43810;50.860;19.226;2022-09-09T00:50:00;12.32;;;6.13;;
58017;SDS011;43810;50.860;19.226;2022-09-09T00:57:44;10.85;;;5.57;;
58017;SDS011;43810;50.860;19.226;2022-09-09T01:05:13;11.30;;;5.72;;
58017;SDS011;43810;50.860;19.226;2022-09-09T01:07:42;12.98;;;6.50;;
58017;SDS011;43810;50.860;19.226;2022-09-09T01:10:14;11.70;;;5.93;;
58017;SDS011;43810;50.860;19.226;2022-09-09T01:12:43;17.80;;;6.03;;
58017;SDS011;43810;50.860;19.226;2022-09-09T01:15:13;15.45;;;6.07;;
58017;SDS011;43810;50.860;19.226;2022-09-09T01:20:10;12.60;;;6.20;;
58017;SDS011;43810;50.860;19.226;2022-09-09T01:22:47;19.52;;;6.28;;
58017;SDS011;43810;50.860;19.226;2022-09-09T01:30:25;13.68;;;5.60;;
58017;SDS011;43810;50.860;19.226;2022-09-09T01:32:56;13.57;;;7.38;;
58017;SDS011;43810;50.860;19.226;2022-09-09T01:37:55;14.10;;;6.97;;
58017;SDS011;43810;50.860;19.226;2022-09-09T01:40:21;15.60;;;7.15;;
58017;SDS011;43810;50.860;19.226;2022-09-09T01:42:46;12.93;;;7.45;;
58017;SDS011;43810;50.860;19.226;2022-09-09T01:45:12;16.73;;;8.10;;
58017;SDS011;43810;50.860;19.226;2022-09-09T01:47:38;23.10;;;10.40;;
58017;SDS011;43810;50.860;19.226;2022-09-09T01:50:03;28.88;;;12.45;;
58017;SDS011;43810;50.860;19.226;2022-09-09T01:52:29;28.33;;;10.82;;
58017;SDS011;43810;50.860;19.226;2022-09-09T01:54:55;18.92;;;9.80;;
58017;SDS011;43810;50.860;19.226;2022-09-09T01:57:27;17.70;;;9.68;;
58017;SDS011;43810;50.860;19.226;2022-09-09T02:00:09;19.60;;;9.10;;
58017;SDS011;43810;50.860;19.226;2022-09-09T02:07:44;18.77;;;9.38;;
58017;SDS011;43810;50.860;19.226;2022-09-09T02:10:23;24.35;;;8.90;;
58017;SDS011;43810;50.860;19.226;2022-09-09T02:12:53;20.13;;;9.05;;
58017;SDS011;43810;50.860;19.226;2022-09-09T02:15:32;16.42;;;9.63;;
58017;SDS011;43810;50.860;19.226;2022-09-09T02:17:59;22.17;;;10.10;;
58017;SDS011;43810;50.860;19.226;2022-09-09T02:20:27;24.20;;;10.88;;
58017;SDS011;43810;50.860;19.226;2022-09-09T02:22:55;18.63;;;10.35;;
58017;SDS011;43810;50.860;19.226;2022-09-09T02:25:22;21.65;;;10.23;;
58017;SDS011;43810;50.860;19.226;2022-09-09T02:27:49;22.55;;;10.85;;
58017;SDS011;43810;50.860;19.226;2022-09-09T02:30:15;25.23;;;11.10;;
58017;SDS011;43810;50.860;19.226;2022-09-09T02:32:41;22.20;;;10.68;;
58017;SDS011;43810;50.860;19.226;2022-09-09T02:35:09;24.98;;;11.10;;
58017;SDS011;43810;50.860;19.226;2022-09-09T02:37:38;25.60;;;11.90;;
58017;SDS011;43810;50.860;19.226;2022-09-09T02:40:08;22.63;;;12.25;;
58017;SDS011;43810;50.860;19.226;2022-09-09T02:42:40;28.42;;;12.40;;
58017;SDS011;43810;50.860;19.226;2022-09-09T02:45:07;28.63;;;11.80;;
58017;SDS011;43810;50.860;19.226;2022-09-09T02:47:53;28.23;;;11.35;;
58017;SDS011;43810;50.860;19.226;2022-09-09T02:50:32;25.35;;;12.32;;
58017;SDS011;43810;50.860;19.226;2022-09-09T02:58:08;24.20;;;10.77;;
58017;SDS011;43810;50.860;19.226;2022-09-09T03:00:36;22.52;;;10.30;;
58017;SDS011;43810;50.860;19.226;2022-09-09T03:03:05;21.33;;;10.52;;
58017;SDS011;43810;50.860;19.226;2022-09-09T03:05:30;22.58;;;11.70;;
58017;SDS011;43810;50.860;19.226;2022-09-09T03:07:57;26.48;;;11.90;;
58017;SDS011;43810;50.860;19.226;2022-09-09T03:10:22;32.90;;;13.98;;
58017;SDS011;43810;50.860;19.226;2022-09-09T03:12:48;33.58;;;13.90;;
58017;SDS011;43810;50.860;19.226;2022-09-09T03:15:14;42.08;;;15.18;;
58017;SDS011;43810;50.860;19.226;2022-09-09T03:17:40;36.67;;;15.43;;
58017;SDS011;43810;50.860;19.226;2022-09-09T03:20:06;44.72;;;16.55;;
58017;SDS011;43810;50.860;19.226;2022-09-09T03:22:32;43.15;;;16.45;;
58017;SDS011;43810;50.860;19.226;2022-09-09T03:24:58;44.38;;;16.65;;
58017;SDS011;43810;50.860;19.226;2022-09-09T03:27:23;63.58;;;18.05;;
58017;SDS011;43810;50.860;19.226;2022-09-09T03:29:49;47.80;;;17.00;;
58017;SDS011;43810;50.860;19.226;2022-09-09T03:32:17;54.00;;;17.65;;
58017;SDS011;43810;50.860;19.226;2022-09-09T03:34:43;59.95;;;18.45;;
58017;SDS011;43810;50.860;19.226;2022-09-09T03:37:09;106.40;;;21.48;;
58017;SDS011;43810;50.860;19.226;2022-09-09T03:39:34;67.20;;;19.40;;
58017;SDS011;43810;50.860;19.226;2022-09-09T03:42:00;68.35;;;20.27;;
58017;SDS011;43810;50.860;19.226;2022-09-09T03:44:28;90.90;;;21.00;;
58017;SDS011;43810;50.860;19.226;2022-09-09T03:46:54;69.97;;;22.02;;
58017;SDS011;43810;50.860;19.226;2022-09-09T03:49:19;66.80;;;23.60;;
58017;SDS011;43810;50.860;19.226;2022-09-09T03:51:45;71.03;;;21.63;;
58017;SDS011;43810;50.860;19.226;2022-09-09T03:54:11;65.70;;;22.77;;
58017;SDS011;43810;50.860;19.226;2022-09-09T03:56:36;65.90;;;21.23;;
58017;SDS011;43810;50.860;19.226;2022-09-09T03:59:02;72.13;;;21.55;;
58017;SDS011;43810;50.860;19.226;2022-09-09T04:01:28;71.80;;;23.77;;
58017;SDS011;43810;50.860;19.226;2022-09-09T04:03:53;70.82;;;23.10;;
58017;SDS011;43810;50.860;19.226;2022-09-09T04:06:20;89.05;;;23.80;;
58017;SDS011;43810;50.860;19.226;2022-09-09T04:08:46;70.78;;;23.02;;
58017;SDS011;43810;50.860;19.226;2022-09-09T04:11:14;131.30;;;24.17;;
58017;SDS011;43810;50.860;19.226;2022-09-09T04:13:40;82.28;;;23.50;;
58017;SDS011;43810;50.860;19.226;2022-09-09T04:16:07;106.13;;;24.00;;
58017;SDS011;43810;50.860;19.226;2022-09-09T04:18:33;102.85;;;22.52;;
58017;SDS011;43810;50.860;19.226;2022-09-09T04:20:59;86.80;;;24.75;;
58017;SDS011;43810;50.860;19.226;2022-09-09T04:23:25;109.68;;;25.92;;
58017;SDS011;43810;50.860;19.226;2022-09-09T04:25:52;88.95;;;23.23;;
58017;SDS011;43810;50.860;19.226;2022-09-09T04:28:20;127.10;;;22.85;;
58017;SDS011;43810;50.860;19.226;2022-09-09T04:30:46;147.35;;;24.25;;
58017;SDS011;43810;50.860;19.226;2022-09-09T04:33:11;128.48;;;23.55;;
58017;SDS011;43810;50.860;19.226;2022-09-09T04:35:38;161.40;;;24.33;;
58017;SDS011;43810;50.860;19.226;2022-09-09T04:38:03;88.93;;;21.02;;
58017;SDS011;43810;50.860;19.226;2022-09-09T04:40:29;84.45;;;22.08;;
58017;SDS011;43810;50.860;19.226;2022-09-09T04:42:57;152.02;;;24.05;;
58017;SDS011;43810;50.860;19.226;2022-09-09T04:45:23;97.28;;;21.67;;
58017;SDS011;43810;50.860;19.226;2022-09-09T04:47:48;122.30;;;22.15;;
58017;SDS011;43810;50.860;19.226;2022-09-09T04:50:14;80.15;;;20.73;;
58017;SDS011;43810;50.860;19.226;2022-09-09T04:52:41;139.85;;;23.33;;
58017;SDS011;43810;50.860;19.226;2022-09-09T04:55:06;108.05;;;23.00;;
58017;SDS011;43810;50.860;19.226;2022-09-09T04:57:34;108.40;;;22.52;;
58017;SDS011;43810;50.860;19.226;2022-09-09T04:59:59;86.07;;;21.67;;
58017;SDS011;43810;50.860;19.226;2022-09-09T05:02:25;72.32;;;22.73;;
58017;SDS011;43810;50.860;19.226;2022-09-09T05:04:51;100.60;;;25.58;;
58017;SDS011;43810;50.860;19.226;2022-09-09T05:07:17;88.47;;;23.08;;
58017;SDS011;43810;50.860;19.226;2022-09-09T05:09:42;75.35;;;23.63;;
58017;SDS011;43810;50.860;19.226;2022-09-09T05:12:08;72.88;;;21.10;;
58017;SDS011;43810;50.860;19.226;2022-09-09T05:14:33;80.68;;;22.38;;
58017;SDS011;43810;50.860;19.226;2022-09-09T05:17:02;78.72;;;22.05;;
58017;SDS011;43810;50.860;19.226;2022-09-09T05:19:28;81.95;;;21.27;;
58017;SDS011;43810;50.860;19.226;2022-09-09T05:21:53;61.25;;;21.50;;
58017;SDS011;43810;50.860;19.226;2022-09-09T05:24:19;64.13;;;20.67;;
58017;SDS011;43810;50.860;19.226;2022-09-09T05:26:44;65.32;;;19.77;;
58017;SDS011;43810;50.860;19.226;2022-09-09T05:29:10;57.67;;;19.45;;
58017;SDS011;43810;50.860;19.226;2022-09-09T05:31:35;52.13;;;20.08;;
58017;SDS011;43810;50.860;19.226;2022-09-09T05:34:02;54.17;;;21.20;;
58017;SDS011;43810;50.860;19.226;2022-09-09T05:36:28;47.20;;;19.00;;
58017;SDS011;43810;50.860;19.226;2022-09-09T05:38:53;51.58;;;19.73;;
58017;SDS011;43810;50.860;19.226;2022-09-09T05:41:19;47.60;;;20.27;;
58017;SDS011;43810;50.860;19.226;2022-09-09T05:43:45;48.75;;;19.25;;
58017;SDS011;43810;50.860;19.226;2022-09-09T05:46:16;42.20;;;20.05;;
58017;SDS011;43810;50.860;19.226;2022-09-09T05:48:42;50.58;;;21.63;;
58017;SDS011;43810;50.860;19.226;2022-09-09T05:51:09;50.80;;;21.85;;
58017;SDS011;43810;50.860;19.226;2022-09-09T05:53:38;45.17;;;20.25;;
58017;SDS011;43810;50.860;19.226;2022-09-09T05:56:05;39.33;;;19.90;;
58017;SDS011;43810;50.860;19.226;2022-09-09T05:58:34;36.22;;;19.35;;
58017;SDS011;43810;50.860;19.226;2022-09-09T06:01:06;37.33;;;19.80;;
58017;SDS011;43810;50.860;19.226;2022-09-09T06:03:33;36.10;;;19.23;;
58017;SDS011;43810;50.860;19.226;2022-09-09T06:06:03;33.80;;;18.45;;
58017;SDS011;43810;50.860;19.226;2022-09-09T06:08:31;30.88;;;18.75;;
58017;SDS011;43810;50.860;19.226;2022-09-09T06:11:03;26.83;;;15.52;;
58017;SDS011;43810;50.860;19.226;2022-09-09T06:13:29;27.50;;;16.00;;
58017;SDS011;43810;50.860;19.226;2022-09-09T06:15:54;29.15;;;16.95;;
58017;SDS011;43810;50.860;19.226;2022-09-09T06:18:21;26.55;;;16.92;;
58017;SDS011;43810;50.860;19.226;2022-09-09T06:20:53;27.98;;;17.45;;
58017;SDS011;43810;50.860;19.226;2022-09-09T06:23:19;27.05;;;16.80;;
58017;SDS011;43810;50.860;19.226;2022-09-09T06:25:45;24.65;;;16.58;;
58017;SDS011;43810;50.860;19.226;2022-09-09T06:28:11;29.98;;;17.15;;
58017;SDS011;43810;50.860;19.226;2022-09-09T06:30:36;29.65;;;17.38;;
58017;SDS011;43810;50.860;19.226;2022-09-09T06:33:02;28.98;;;16.98;;
58017;SDS011;43810;50.860;19.226;2022-09-09T06:35:28;21.83;;;15.45;;
58017;SDS011;43810;50.860;19.226;2022-09-09T06:37:54;19.48;;;14.30;;
58017;SDS011;43810;50.860;19.226;2022-09-09T06:40:20;19.42;;;13.88;;
58017;SDS011;43810;50.860;19.226;2022-09-09T06:42:45;23.63;;;14.45;;
58017;SDS011;43810;50.860;19.226;2022-09-09T06:45:11;18.17;;;14.02;;
58017;SDS011;43810;50.860;19.226;2022-09-09T06:47:36;18.73;;;13.45;;
58017;SDS011;43810;50.860;19.226;2022-09-09T06:50:02;20.10;;;14.18;;
58017;SDS011;43810;50.860;19.226;2022-09-09T06:52:27;17.63;;;12.30;;
58017;SDS011;43810;50.860;19.226;2022-09-09T06:54:53;19.40;;;12.55;;
58017;SDS011;43810;50.860;19.226;2022-09-09T06:57:19;17.67;;;13.15;;
58017;SDS011;43810;50.860;19.226;2022-09-09T06:59:48;15.30;;;11.57;;
58017;SDS011;43810;50.860;19.226;2022-09-09T07:02:14;16.70;;;11.98;;
58017;SDS011;43810;50.860;19.226;2022-09-09T07:04:40;13.70;;;11.82;;
58017;SDS011;43810;50.860;19.226;2022-09-09T07:07:05;13.93;;;11.38;;
58017;SDS011;43810;50.860;19.226;2022-09-09T07:09:31;13.77;;;11.18;;
58017;SDS011;43810;50.860;19.226;2022-09-09T07:11:57;11.55;;;9.57;;
58017;SDS011;43810;50.860;19.226;2022-09-09T07:14:24;15.95;;;10.35;;
58017;SDS011;43810;50.860;19.226;2022-09-09T07:16:51;10.52;;;9.18;;
58017;SDS011;43810;50.860;19.226;2022-09-09T07:19:16;12.25;;;9.63;;
58017;SDS011;43810;50.860;19.226;2022-09-09T07:21:42;21.05;;;17.85;;
58017;SDS011;43810;50.860;19.226;2022-09-09T07:24:08;11.90;;;9.27;;
58017;SDS011;43810;50.860;19.226;2022-09-09T07:26:35;12.65;;;8.82;;
58017;SDS011;43810;50.860;19.226;2022-09-09T07:29:01;11.07;;;8.38;;
58017;SDS011;43810;50.860;19.226;2022-09-09T07:31:31;12.88;;;11.52;;
58017;SDS011;43810;50.860;19.226;2022-09-09T07:33:57;19.02;;;15.02;;
58017;SDS011;43810;50.860;19.226;2022-09-09T07:36:27;15.63;;;10.30;;
58017;SDS011;43810;50.860;19.226;2022-09-09T07:38:53;7.15;;;6.45;;
58017;SDS011;43810;50.860;19.226;2022-09-09T07:43:48;5.57;;;5.03;;
58017;SDS011;43810;50.860;19.226;2022-09-09T07:46:14;10.35;;;9.20;;
58017;SDS011;43810;50.860;19.226;2022-09-09T07:48:45;6.88;;;4.93;;
58017;SDS011;43810;50.860;19.226;2022-09-09T07:51:11;5.22;;;4.10;;
58017;SDS011;43810;50.860;19.226;2022-09-09T07:53:38;3.85;;;3.42;;
58017;SDS011;43810;50.860;19.226;2022-09-09T07:56:08;6.30;;;4.25;;
58017;SDS011;43810;50.860;19.226;2022-09-09T07:58:35;4.22;;;3.22;;
58017;SDS011;43810;50.860;19.226;2022-09-09T08:01:05;3.38;;;3.08;;
58017;SDS011;43810;50.860;19.226;2022-09-09T08:03:31;7.78;;;3.80;;
58017;SDS011;43810;50.860;19.226;2022-09-09T08:05:59;3.17;;;2.60;;
58017;SDS011;43810;50.860;19.226;2022-09-09T08:08:27;3.30;;;3.00;;
58017;SDS011;43810;50.860;19.226;2022-09-09T08:10:52;2.92;;;2.50;;
58017;SDS011;43810;50.860;19.226;2022-09-09T08:13:18;2.85;;;2.65;;
58017;SDS011;43810;50.860;19.226;2022-09-09T08:15:46;2.53;;;2.33;;
58017;SDS011;43810;50.860;19.226;2022-09-09T08:18:12;2.72;;;2.53;;
58017;SDS011;43810;50.860;19.226;2022-09-09T08:20:38;3.28;;;2.85;;
58017;SDS011;43810;50.860;19.226;2022-09-09T08:23:03;3.20;;;2.67;;
58017;SDS011;43810;50.860;19.226;2022-09-09T08:25:30;2.40;;;2.13;;
58017;SDS011;43810;50.860;19.226;2022-09-09T08:27:55;3.15;;;1.60;;
58017;SDS011;43810;50.860;19.226;2022-09-09T08:30:21;4.00;;;2.28;;
58017;SDS011;43810;50.860;19.226;2022-09-09T08:32:46;2.20;;;2.00;;
58017;SDS011;43810;50.860;19.226;2022-09-09T08:35:13;3.90;;;1.73;;
58017;SDS011;43810;50.860;19.226;2022-09-09T08:37:39;1.80;;;1.70;;
58017;SDS011;43810;50.860;19.226;2022-09-09T08:40:04;3.72;;;2.03;;
58017;SDS011;43810;50.860;19.226;2022-09-09T08:45:14;2.42;;;2.10;;
58017;SDS011;43810;50.860;19.226;2022-09-09T08:58:02;2.70;;;1.83;;
58017;SDS011;43810;50.860;19.226;2022-09-09T09:00:33;1.42;;;1.30;;
58017;SDS011;43810;50.860;19.226;2022-09-09T09:03:23;1.65;;;1.38;;
58017;SDS011;43810;50.860;19.226;2022-09-09T09:05:59;1.60;;;1.50;;
58017;SDS011;43810;50.860;19.226;2022-09-09T09:10:53;2.67;;;2.05;;
58017;SDS011;43810;50.860;19.226;2022-09-09T09:15:57;6.88;;;4.32;;
58017;SDS011;43810;50.860;19.226;2022-09-09T09:18:23;1.88;;;1.75;;
58017;SDS011;43810;50.860;19.226;2022-09-09T09:20:54;2.42;;;1.63;;
58017;SDS011;43810;50.860;19.226;2022-09-09T09:23:23;2.50;;;2.30;;
58017;SDS011;43810;50.860;19.226;2022-09-09T09:25:50;1.35;;;1.25;;
58017;SDS011;43810;50.860;19.226;2022-09-09T09:28:17;1.20;;;1.05;;
58017;SDS011;43810;50.860;19.226;2022-09-09T09:30:53;2.45;;;1.33;;
58017;SDS011;43810;50.860;19.226;2022-09-09T09:33:32;1.73;;;1.33;;
58017;SDS011;43810;50.860;19.226;2022-09-09T09:35:59;2.45;;;1.08;;
58017;SDS011;43810;50.860;19.226;2022-09-09T09:38:26;1.23;;;1.23;;
58017;SDS011;43810;50.860;19.226;2022-09-09T09:40:53;2.08;;;1.35;;
58017;SDS011;43810;50.860;19.226;2022-09-09T09:45:58;2.00;;;1.00;;
58017;SDS011;43810;50.860;19.226;2022-09-09T09:48:24;1.00;;;0.80;;
58017;SDS011;43810;50.860;19.226;2022-09-09T09:50:56;1.50;;;0.98;;
58017;SDS011;43810;50.860;19.226;2022-09-09T09:55:56;3.50;;;1.17;;
58017;SDS011;43810;50.860;19.226;2022-09-09T09:58:23;1.30;;;1.20;;
58017;SDS011;43810;50.860;19.226;2022-09-09T10:00:51;5.47;;;1.65;;
58017;SDS011;43810;50.860;19.226;2022-09-09T10:03:30;3.25;;;1.40;;
58017;SDS011;43810;50.860;19.226;2022-09-09T10:05:56;2.22;;;1.48;;
58017;SDS011;43810;50.860;19.226;2022-09-09T10:08:25;1.45;;;1.35;;
58017;SDS011;43810;50.860;19.226;2022-09-09T10:13:47;3.78;;;1.60;;
58017;SDS011;43810;50.860;19.226;2022-09-09T10:16:19;3.40;;;1.65;;
58017;SDS011;43810;50.860;19.226;2022-09-09T10:18:59;1.67;;;1.58;;
58017;SDS011;43810;50.860;19.226;2022-09-09T10:29:10;3.47;;;1.30;;
58017;SDS011;43810;50.860;19.226;2022-09-09T10:36:58;1.95;;;1.42;;
58017;SDS011;43810;50.860;19.226;2022-09-09T10:47:15;9.63;;;7.25;;
58017;SDS011;43810;50.860;19.226;2022-09-09T10:57:33;2.33;;;1.60;;
58017;SDS011;43810;50.860;19.226;2022-09-09T11:00:05;3.83;;;2.00;;
58017;SDS011;43810;50.860;19.226;2022-09-09T11:02:32;2.13;;;1.00;;
58017;SDS011;43810;50.860;19.226;2022-09-09T11:05:00;2.13;;;1.20;;
58017;SDS011;43810;50.860;19.226;2022-09-09T11:07:34;1.42;;;1.08;;
58017;SDS011;43810;50.860;19.226;2022-09-09T11:10:03;6.05;;;1.17;;
58017;SDS011;43810;50.860;19.226;2022-09-09T11:12:31;2.20;;;1.25;;
58017;SDS011;43810;50.860;19.226;2022-09-09T11:15:04;1.08;;;0.98;;
58017;SDS011;43810;50.860;19.226;2022-09-09T11:17:36;3.60;;;1.40;;
58017;SDS011;43810;50.860;19.226;2022-09-09T11:20:05;1.40;;;1.25;;
58017;SDS011;43810;50.860;19.226;2022-09-09T11:38:18;1.23;;;1.00;;
58017;SDS011;43810;50.860;19.226;2022-09-09T11:40:44;0.98;;;0.98;;
58017;SDS011;43810;50.860;19.226;2022-09-09T11:43:18;0.80;;;0.80;;
58017;SDS011;43810;50.860;19.226;2022-09-09T11:45:51;1.58;;;0.95;;
58017;SDS011;43810;50.860;19.226;2022-09-09T11:48:23;1.23;;;1.08;;
58017;SDS011;43810;50.860;19.226;2022-09-09T11:50:57;1.17;;;1.02;;
58017;SDS011;43810;50.860;19.226;2022-09-09T11:53:23;2.63;;;1.02;;
58017;SDS011;43810;50.860;19.226;2022-09-09T11:58:27;1.50;;;1.10;;
58017;SDS011;43810;50.860;19.226;2022-09-09T12:00:57;1.38;;;1.20;;
58017;SDS011;43810;50.860;19.226;2022-09-09T12:06:41;1.00;;;1.00;;
58017;SDS011;43810;50.860;19.226;2022-09-09T12:08:58;2.92;;;1.40;;
58017;SDS011;43810;50.860;19.226;2022-09-09T12:11:31;3.05;;;1.08;;
58017;SDS011;43810;50.860;19.226;2022-09-09T12:13:58;2.20;;;1.33;;
58017;SDS011;43810;50.860;19.226;2022-09-09T12:16:42;1.40;;;1.30;;
58017;SDS011;43810;50.860;19.226;2022-09-09T12:21:40;2.45;;;1.35;;
58017;SDS011;43810;50.860;19.226;2022-09-09T12:24:11;2.03;;;1.40;;
58017;SDS011;43810;50.860;19.226;2022-09-09T12:36:40;1.80;;;1.02;;
58017;SDS011;43810;50.860;19.226;2022-09-09T12:39:29;1.83;;;1.10;;
58017;SDS011;43810;50.860;19.226;2022-09-09T12:41:55;1.58;;;1.20;;
58017;SDS011;43810;50.860;19.226;2022-09-09T12:44:22;1.20;;;1.10;;
58017;SDS011;43810;50.860;19.226;2022-09-09T12:46:48;1.33;;;1.20;;
58017;SDS011;43810;50.860;19.226;2022-09-09T12:51:51;1.63;;;1.10;;
58017;SDS011;43810;50.860;19.226;2022-09-09T12:54:17;1.73;;;1.20;;
58017;SDS011;43810;50.860;19.226;2022-09-09T12:56:47;1.30;;;1.13;;
58017;SDS011;43810;50.860;19.226;2022-09-09T12:59:24;1.75;;;1.17;;
58017;SDS011;43810;50.860;19.226;2022-09-09T13:01:56;1.45;;;1.20;;
58017;SDS011;43810;50.860;19.226;2022-09-09T13:06:49;1.83;;;1.20;;
58017;SDS011;43810;50.860;19.226;2022-09-09T13:09:15;1.63;;;1.20;;
58017;SDS011;43810;50.860;19.226;2022-09-09T13:11:41;1.13;;;1.10;;
58017;SDS011;43810;50.860;19.226;2022-09-09T13:14:24;3.90;;;1.38;;
58017;SDS011;43810;50.860;19.226;2022-09-09T13:16:57;0.98;;;0.88;;
58017;SDS011;43810;50.860;19.226;2022-09-09T13:19:23;2.67;;;1.10;;
58017;SDS011;43810;50.860;19.226;2022-09-09T13:21:52;2.35;;;1.10;;
58017;SDS011;43810;50.860;19.226;2022-09-09T13:26:54;4.03;;;1.90;;
58017;SDS011;43810;50.860;19.226;2022-09-09T13:29:21;2.00;;;1.38;;
58017;SDS011;43810;50.860;19.226;2022-09-09T13:31:47;1.42;;;1.20;;
58017;SDS011;43810;50.860;19.226;2022-09-09T13:34:13;1.45;;;1.10;;
58017;SDS011;43810;50.860;19.226;2022-09-09T13:36:39;1.42;;;1.00;;
58017;SDS011;43810;50.860;19.226;2022-09-09T13:39:14;1.63;;;1.02;;
58017;SDS011;43810;50.860;19.226;2022-09-09T13:41:44;2.38;;;1.13;;
58017;SDS011;43810;50.860;19.226;2022-09-09T13:44:26;3.75;;;1.27;;
58017;SDS011;43810;50.860;19.226;2022-09-09T13:47:05;3.58;;;1.48;;
58017;SDS011;43810;50.860;19.226;2022-09-09T13:49:31;1.75;;;1.13;;
58017;SDS011;43810;50.860;19.226;2022-09-09T13:52:03;3.17;;;1.30;;
58017;SDS011;43810;50.860;19.226;2022-09-09T13:54:29;1.50;;;1.10;;
58017;SDS011;43810;50.860;19.226;2022-09-09T13:56:56;2.05;;;1.30;;
58017;SDS011;43810;50.860;19.226;2022-09-09T13:59:21;4.93;;;1.63;;
58017;SDS011;43810;50.860;19.226;2022-09-09T14:01:48;1.40;;;1.30;;
58017;SDS011;43810;50.860;19.226;2022-09-09T14:04:14;2.65;;;1.10;;
58017;SDS011;43810;50.860;19.226;2022-09-09T14:06:41;1.08;;;0.93;;
58017;SDS011;43810;50.860;19.226;2022-09-09T14:09:07;1.27;;;1.17;;
58017;SDS011;43810;50.860;19.226;2022-09-09T14:11:33;3.42;;;1.10;;
58017;SDS011;43810;50.860;19.226;2022-09-09T14:13:59;0.88;;;0.85;;
58017;SDS011;43810;50.860;19.226;2022-09-09T14:16:26;2.65;;;1.33;;
58017;SDS011;43810;50.860;19.226;2022-09-09T14:18:53;2.28;;;1.40;;
58017;SDS011;43810;50.860;19.226;2022-09-09T14:21:18;2.25;;;0.90;;
58017;SDS011;43810;50.860;19.226;2022-09-09T14:23:44;2.88;;;1.15;;
58017;SDS011;43810;50.860;19.226;2022-09-09T14:26:09;1.67;;;0.95;;
58017;SDS011;43810;50.860;19.226;2022-09-09T14:28:35;2.63;;;1.20;;
58017;SDS011;43810;50.860;19.226;2022-09-09T14:31:02;1.25;;;1.15;;
58017;SDS011;43810;50.860;19.226;2022-09-09T14:33:27;2.28;;;1.17;;
58017;SDS011;43810;50.860;19.226;2022-09-09T14:35:59;1.50;;;1.40;;
58017;SDS011;43810;50.860;19.226;2022-09-09T14:38:28;1.23;;;1.13;;
58017;SDS011;43810;50.860;19.226;2022-09-09T14:40:54;1.90;;;1.35;;
58017;SDS011;43810;50.860;19.226;2022-09-09T14:43:19;2.25;;;1.10;;
58017;SDS011;43810;50.860;19.226;2022-09-09T14:45:45;1.90;;;1.40;;
58017;SDS011;43810;50.860;19.226;2022-09-09T14:48:11;1.20;;;1.10;;
58017;SDS011;43810;50.860;19.226;2022-09-09T14:50:36;1.35;;;1.25;;
58017;SDS011;43810;50.860;19.226;2022-09-09T14:53:05;1.88;;;1.17;;
58017;SDS011;43810;50.860;19.226;2022-09-09T14:55:30;1.95;;;1.20;;
58017;SDS011;43810;50.860;19.226;2022-09-09T14:57:56;2.17;;;1.10;;
58017;SDS011;43810;50.860;19.226;2022-09-09T15:00:22;2.55;;;1.40;;
58017;SDS011;43810;50.860;19.226;2022-09-09T15:02:47;1.55;;;1.40;;
58017;SDS011;43810;50.860;19.226;2022-09-09T15:05:13;1.48;;;1.38;;
58017;SDS011;43810;50.860;19.226;2022-09-09T15:07:40;2.10;;;1.10;;
58017;SDS011;43810;50.860;19.226;2022-09-09T15:10:05;2.55;;;1.50;;
58017;SDS011;43810;50.860;19.226;2022-09-09T15:12:32;1.88;;;1.30;;
58017;SDS011;43810;50.860;19.226;2022-09-09T15:14:58;3.83;;;1.73;;
58017;SDS011;43810;50.860;19.226;2022-09-09T15:17:24;3.33;;;1.33;;
58017;SDS011;43810;50.860;19.226;2022-09-09T15:19:51;1.50;;;1.30;;
58017;SDS011;43810;50.860;19.226;2022-09-09T15:22:16;1.73;;;1.40;;
58017;SDS011;43810;50.860;19.226;2022-09-09T15:24:42;2.20;;;1.48;;
58017;SDS011;43810;50.860;19.226;2022-09-09T15:27:07;2.22;;;1.40;;
58017;SDS011;43810;50.860;19.226;2022-09-09T15:29:33;1.33;;;1.20;;
58017;SDS011;43810;50.860;19.226;2022-09-09T15:31:58;2.63;;;1.42;;
58017;SDS011;43810;50.860;19.226;2022-09-09T15:34:24;1.75;;;1.60;;
58017;SDS011;43810;50.860;19.226;2022-09-09T15:36:50;2.72;;;1.13;;
58017;SDS011;43810;50.860;19.226;2022-09-09T15:39:17;1.50;;;1.40;;
58017;SDS011;43810;50.860;19.226;2022-09-09T15:41:44;1.27;;;1.20;;
58017;SDS011;43810;50.860;19.226;2022-09-09T15:44:10;1.55;;;1.30;;
58017;SDS011;43810;50.860;19.226;2022-09-09T15:46:38;1.60;;;1.10;;
58017;SDS011;43810;50.860;19.226;2022-09-09T15:51:44;4.85;;;1.50;;
58017;SDS011;43810;50.860;19.226;2022-09-09T15:54:11;1.45;;;1.30;;
58017;SDS011;43810;50.860;19.226;2022-09-09T15:56:37;2.28;;;1.42;;
58017;SDS011;43810;50.860;19.226;2022-09-09T15:59:03;1.70;;;1.25;;
58017;SDS011;43810;50.860;19.226;2022-09-09T16:01:29;2.75;;;1.42;;
58017;SDS011;43810;50.860;19.226;2022-09-09T16:03:56;1.45;;;1.35;;
58017;SDS011;43810;50.860;19.226;2022-09-09T16:06:22;1.42;;;1.30;;
58017;SDS011;43810;50.860;19.226;2022-09-09T16:08:49;2.53;;;1.45;;
58017;SDS011;43810;50.860;19.226;2022-09-09T16:13:47;2.30;;;1.88;;
58017;SDS011;43810;50.860;19.226;2022-09-09T16:16:17;2.72;;;1.98;;
58017;SDS011;43810;50.860;19.226;2022-09-09T16:18:45;2.55;;;1.90;;
58017;SDS011;43810;50.860;19.226;2022-09-09T16:21:13;4.70;;;1.90;;
58017;SDS011;43810;50.860;19.226;2022-09-09T16:23:39;2.72;;;2.22;;
58017;SDS011;43810;50.860;19.226;2022-09-09T16:26:04;2.20;;;2.00;;
58017;SDS011;43810;50.860;19.226;2022-09-09T16:28:30;2.92;;;1.77;;
58017;SDS011;43810;50.860;19.226;2022-09-09T16:30:55;2.53;;;1.88;;
58017;SDS011;43810;50.860;19.226;2022-09-09T16:33:21;3.17;;;2.33;;
58017;SDS011;43810;50.860;19.226;2022-09-09T16:35:47;3.45;;;2.15;;
58017;SDS011;43810;50.860;19.226;2022-09-09T16:38:14;64.43;;;8.07;;
58017;SDS011;43810;50.860;19.226;2022-09-09T16:40:40;13.43;;;3.67;;
58017;SDS011;43810;50.860;19.226;2022-09-09T16:43:09;2.97;;;2.42;;
58017;SDS011;43810;50.860;19.226;2022-09-09T16:45:41;4.80;;;2.30;;
58017;SDS011;43810;50.860;19.226;2022-09-09T16:48:07;3.83;;;2.28;;
58017;SDS011;43810;50.860;19.226;2022-09-09T16:50:32;2.85;;;2.20;;
58017;SDS011;43810;50.860;19.226;2022-09-09T16:52:58;3.00;;;2.58;;